createdAt,value
2022-09-12T00:00:13.062Z,19
2022-09-12T00:01:14.036Z,19.1
2022-09-12T00:02:15.052Z,19.1
2022-09-12T00:03:16.044Z,19.1
2022-09-12T00:04:17.008Z,19.1
2022-09-12T00:05:18.045Z,19.1
2022-09-12T00:06:22.543Z,19
2022-09-12T00:07:20.026Z,19
2022-09-12T00:08:21.055Z,18.9
2022-09-12T00:09:22.024Z,18.9
2022-09-12T00:10:23.096Z,18.9
2022-09-12T00:11:24.023Z,18.8
2022-09-12T00:12:25.078Z,18.7
2022-09-12T00:13:26.037Z,18.7
2022-09-12T00:14:27.029Z,18.6
2022-09-12T00:15:28.060Z,18.5
2022-09-12T00:16:29.105Z,18.4
2022-09-12T00:17:30.056Z,18.3
2022-09-12T00:18:31.041Z,18.2
2022-09-12T00:19:32.285Z,18.1
2022-09-12T00:20:34.080Z,18.1
2022-09-12T00:21:35.079Z,18.1
2022-09-12T00:22:37.117Z,18
2022-09-12T00:23:38.068Z,18
2022-09-12T00:24:39.037Z,18
2022-09-12T00:25:40.128Z,17.9
2022-09-12T00:26:41.292Z,17.9
2022-09-12T00:27:43.107Z,17.9
2022-09-12T00:28:44.096Z,17.9
2022-09-12T00:29:45.050Z,17.9
2022-09-12T00:30:46.050Z,17.9
2022-09-12T00:31:47.070Z,17.9
2022-09-12T00:32:48.089Z,17.8
2022-09-12T00:33:49.062Z,17.9
2022-09-12T00:34:50.090Z,17.9
2022-09-12T00:35:51.075Z,17.9
2022-09-12T00:36:52.073Z,17.9
2022-09-12T00:37:53.112Z,17.9
2022-09-12T00:38:54.098Z,17.9
2022-09-12T00:39:55.109Z,17.8
2022-09-12T00:40:56.070Z,17.8
2022-09-12T00:41:57.081Z,17.9
2022-09-12T00:42:58.200Z,17.9
2022-09-12T00:43:59.084Z,17.9
2022-09-12T00:45:00.074Z,18
2022-09-12T00:46:01.150Z,18
2022-09-12T00:47:02.082Z,18.1
2022-09-12T00:48:03.105Z,18.2
2022-09-12T00:49:04.085Z,18.3
2022-09-12T00:50:05.158Z,18.4
2022-09-12T00:51:06.084Z,18.5
2022-09-12T00:52:07.086Z,18.5
2022-09-12T00:53:08.091Z,18.5
2022-09-12T00:54:09.105Z,18.4
2022-09-12T00:55:10.107Z,18.3
2022-09-12T00:56:11.106Z,18.2
2022-09-12T00:57:12.092Z,18.1
2022-09-12T00:58:13.122Z,18
2022-09-12T00:59:15.144Z,17.9
2022-09-12T01:00:16.229Z,17.9
2022-09-12T01:01:18.296Z,17.9
2022-09-12T01:02:19.143Z,17.9
2022-09-12T01:03:20.106Z,17.8
2022-09-12T01:04:21.140Z,17.8
2022-09-12T01:05:22.142Z,17.8
2022-09-12T01:06:23.107Z,17.8
2022-09-12T01:07:24.108Z,17.7
2022-09-12T01:08:25.141Z,17.8
2022-09-12T01:09:26.120Z,17.7
2022-09-12T01:10:27.123Z,17.8
2022-09-12T01:11:28.140Z,17.8
2022-09-12T01:12:29.113Z,17.9
2022-09-12T01:13:30.147Z,17.9
2022-09-12T01:14:31.155Z,18
2022-09-12T01:15:32.196Z,18.1
2022-09-12T01:16:33.156Z,18.1
2022-09-12T01:17:34.166Z,18.1
2022-09-12T01:18:35.225Z,18
2022-09-12T01:19:36.132Z,18
2022-09-12T01:20:37.184Z,17.9
2022-09-12T01:21:38.132Z,17.9
2022-09-12T01:22:39.163Z,17.8
2022-09-12T01:23:40.138Z,17.8
2022-09-12T01:24:41.158Z,17.7
2022-09-12T01:25:42.144Z,17.7
2022-09-12T01:26:43.168Z,17.7
2022-09-12T01:27:45.266Z,17.7
2022-09-12T01:28:47.249Z,17.8
2022-09-12T01:29:48.147Z,17.8
2022-09-12T01:30:49.152Z,17.9
2022-09-12T01:31:51.211Z,18
2022-09-12T01:32:52.232Z,18
2022-09-12T01:33:53.185Z,18.1
2022-09-12T01:34:54.155Z,18.2
2022-09-12T01:35:55.164Z,18.2
2022-09-12T01:36:56.150Z,18.2
2022-09-12T01:37:57.182Z,18.2
2022-09-12T01:38:58.168Z,18.3
2022-09-12T01:39:59.197Z,18.3
2022-09-12T01:41:00.207Z,18.2
2022-09-12T01:42:01.202Z,18.2
2022-09-12T01:43:02.204Z,18.2
2022-09-12T01:44:03.197Z,18.1
2022-09-12T01:45:04.230Z,18.1
2022-09-12T01:46:05.275Z,18
2022-09-12T01:47:07.168Z,18
2022-09-12T01:48:08.179Z,17.9
2022-09-12T01:49:09.170Z,18
2022-09-12T01:50:10.381Z,18.1
2022-09-12T01:51:12.179Z,18.2
2022-09-12T01:52:13.179Z,18.3
2022-09-12T01:53:14.189Z,18.3
2022-09-12T01:54:15.196Z,18.4
2022-09-12T01:55:16.216Z,18.5
2022-09-12T01:56:17.227Z,18.6
2022-09-12T01:57:18.184Z,18.6
2022-09-12T01:58:19.217Z,18.6
2022-09-12T01:59:20.220Z,18.6
2022-09-12T02:00:21.224Z,18.6
2022-09-12T02:01:22.234Z,18.6
2022-09-12T02:02:23.239Z,18.6
2022-09-12T02:03:24.255Z,18.6
2022-09-12T02:04:25.196Z,18.6
2022-09-12T02:05:26.223Z,18.6
2022-09-12T02:06:27.209Z,18.6
2022-09-12T02:07:28.205Z,18.6
2022-09-12T02:08:29.229Z,18.6
2022-09-12T02:09:30.216Z,18.7
2022-09-12T02:10:32.615Z,18.7
2022-09-12T02:11:32.218Z,18.7
2022-09-12T02:12:33.207Z,18.7
2022-09-12T02:13:34.263Z,18.6
2022-09-12T02:14:35.263Z,18.5
2022-09-12T02:15:36.300Z,18.4
2022-09-12T02:16:37.275Z,18.4
2022-09-12T02:17:38.253Z,18.3
2022-09-12T02:18:39.248Z,18.2
2022-09-12T02:19:40.221Z,18.1
2022-09-12T02:20:48.217Z,18
2022-09-12T02:21:42.230Z,18
2022-09-12T02:22:43.228Z,17.9
2022-09-12T02:23:44.244Z,17.9
2022-09-12T02:24:45.257Z,17.9
2022-09-12T02:25:46.567Z,18
2022-09-12T02:26:48.232Z,18.1
2022-09-12T02:27:49.239Z,18.1
2022-09-12T02:28:50.260Z,18.2
2022-09-12T02:29:51.283Z,18.2
2022-09-12T02:30:52.276Z,18.2
2022-09-12T02:31:53.245Z,18.2
2022-09-12T02:32:54.461Z,18.2
2022-09-12T02:33:56.262Z,18.1
2022-09-12T02:34:57.258Z,18.1
2022-09-12T02:35:58.269Z,18.1
2022-09-12T02:36:59.365Z,18
2022-09-12T02:38:01.315Z,18
2022-09-12T02:39:02.286Z,18
2022-09-12T02:40:03.539Z,18
2022-09-12T02:41:05.293Z,17.9
2022-09-12T02:42:06.292Z,18
2022-09-12T02:43:07.271Z,18
2022-09-12T02:44:08.280Z,18
2022-09-12T02:45:09.307Z,18
2022-09-12T02:46:10.304Z,18
2022-09-12T02:47:11.290Z,18
2022-09-12T02:48:13.479Z,18
2022-09-12T02:49:13.293Z,18
2022-09-12T02:50:14.265Z,17.9
2022-09-12T02:51:15.266Z,17.9
2022-09-12T02:52:16.300Z,17.9
2022-09-12T02:53:17.274Z,17.9
2022-09-12T02:54:18.271Z,18
2022-09-12T02:55:19.302Z,18
2022-09-12T02:56:20.283Z,18.1
2022-09-12T02:57:22.988Z,18.2
2022-09-12T02:58:22.279Z,18.2
2022-09-12T02:59:23.302Z,18.1
2022-09-12T03:00:24.319Z,18.2
2022-09-12T03:01:25.325Z,18.2
2022-09-12T03:02:26.384Z,18.2
2022-09-12T03:03:27.288Z,18.3
2022-09-12T03:04:28.309Z,18.3
2022-09-12T03:05:29.296Z,18.3
2022-09-12T03:06:30.289Z,18.2
2022-09-12T03:07:31.304Z,18.2
2022-09-12T03:08:32.293Z,18.2
2022-09-12T03:09:33.329Z,18.1
2022-09-12T03:10:34.293Z,18
2022-09-12T03:11:35.355Z,18
2022-09-12T03:12:36.303Z,17.9
2022-09-12T03:13:37.306Z,17.9
2022-09-12T03:14:38.313Z,17.9
2022-09-12T03:15:39.348Z,17.9
2022-09-12T03:16:40.386Z,17.8
2022-09-12T03:17:41.310Z,17.8
2022-09-12T03:18:42.307Z,17.6
2022-09-12T03:19:43.313Z,17.6
2022-09-12T03:20:44.384Z,17.5
2022-09-12T03:21:45.314Z,17.4
2022-09-12T03:22:50.535Z,17.5
2022-09-12T03:23:47.316Z,17.6
2022-09-12T03:24:48.342Z,17.6
2022-09-12T03:25:49.350Z,17.7
2022-09-12T03:26:50.320Z,17.7
2022-09-12T03:27:51.345Z,17.7
2022-09-12T03:28:52.324Z,17.8
2022-09-12T03:29:53.355Z,17.7
2022-09-12T03:30:54.445Z,17.7
2022-09-12T03:31:55.333Z,17.8
2022-09-12T03:32:56.358Z,17.7
2022-09-12T03:33:57.332Z,17.7
2022-09-12T03:34:58.343Z,17.8
2022-09-12T03:35:59.368Z,17.8
2022-09-12T03:37:00.337Z,17.8
2022-09-12T03:38:01.387Z,17.9
2022-09-12T03:39:02.364Z,17.9
2022-09-12T03:40:03.727Z,18
2022-09-12T03:41:05.367Z,18.1
2022-09-12T03:42:06.375Z,18.2
2022-09-12T03:43:07.347Z,18.2
2022-09-12T03:44:08.379Z,18.2
2022-09-12T03:45:09.468Z,18.2
2022-09-12T03:46:11.406Z,18.3
2022-09-12T03:47:12.357Z,18.3
2022-09-12T03:48:13.357Z,18.4
2022-09-12T03:49:14.414Z,18.4
2022-09-12T03:50:15.355Z,18.4
2022-09-12T03:51:16.357Z,18.4
2022-09-12T03:52:17.373Z,18.3
2022-09-12T03:53:18.387Z,18.3
2022-09-12T03:54:19.416Z,18.3
2022-09-12T03:55:20.367Z,18.3
2022-09-12T03:56:21.365Z,18.2
2022-09-12T03:57:22.364Z,18.2
2022-09-12T03:58:23.400Z,18.1
2022-09-12T03:59:24.377Z,18.1
2022-09-12T04:00:25.440Z,18.1
2022-09-12T04:01:26.440Z,18.1
2022-09-12T04:02:27.416Z,18
2022-09-12T04:03:28.378Z,18
2022-09-12T04:04:29.400Z,18
2022-09-12T04:05:30.406Z,17.9
2022-09-12T04:06:31.378Z,17.7
2022-09-12T04:07:32.405Z,17.6
2022-09-12T04:08:33.381Z,17.5
2022-09-12T04:09:34.394Z,17.4
2022-09-12T04:10:35.417Z,17.3
2022-09-12T04:11:36.449Z,17.3
2022-09-12T04:12:37.396Z,17.4
2022-09-12T04:13:38.410Z,17.4
2022-09-12T04:14:39.392Z,17.5
2022-09-12T04:15:40.398Z,17.5
2022-09-12T04:16:41.888Z,17.5
2022-09-12T04:17:43.409Z,17.5
2022-09-12T04:18:44.465Z,17.5
2022-09-12T04:19:45.408Z,17.4
2022-09-12T04:20:46.428Z,17.4
2022-09-12T04:21:47.404Z,17.4
2022-09-12T04:22:48.413Z,17.4
2022-09-12T04:23:49.408Z,17.4
2022-09-12T04:24:50.418Z,17.4
2022-09-12T04:25:51.483Z,17.5
2022-09-12T04:26:52.418Z,17.4
2022-09-12T04:27:53.412Z,17.5
2022-09-12T04:28:54.434Z,17.5
2022-09-12T04:29:55.421Z,17.5
2022-09-12T04:30:56.522Z,17.6
2022-09-12T04:31:57.471Z,17.6
2022-09-12T04:32:58.422Z,17.5
2022-09-12T04:33:59.429Z,17.5
2022-09-12T04:38:24.438Z,17.3
2022-09-12T04:39:25.436Z,17.3
2022-09-12T04:40:26.440Z,17.2
2022-09-12T04:41:27.449Z,17.2
2022-09-12T04:42:28.498Z,17.2
2022-09-12T04:43:29.439Z,17.4
2022-09-12T04:44:30.438Z,17.4
2022-09-12T04:45:31.503Z,17.5
2022-09-12T04:46:32.443Z,17.7
2022-09-12T04:47:33.493Z,17.8
2022-09-12T04:48:34.482Z,17.8
2022-09-12T04:49:35.448Z,17.8
2022-09-12T04:50:36.449Z,17.9
2022-09-12T04:51:37.476Z,17.9
2022-09-12T04:52:38.469Z,18
2022-09-12T04:53:39.449Z,18.1
2022-09-12T04:54:40.513Z,18.2
2022-09-12T04:55:41.658Z,18.1
2022-09-12T04:56:44.212Z,18.1
2022-09-12T04:57:45.511Z,18.1
2022-09-12T04:58:46.532Z,18.2
2022-09-12T04:59:47.490Z,18.2
2022-09-12T05:00:48.496Z,18.2
2022-09-12T05:01:49.583Z,18.2
2022-09-12T05:02:50.520Z,18.2
2022-09-12T05:03:51.551Z,18.1
2022-09-12T05:04:52.489Z,18.1
2022-09-12T05:05:56.308Z,18.2
2022-09-12T05:06:54.487Z,18.3
2022-09-12T05:07:55.475Z,18.3
2022-09-12T05:08:56.494Z,18.2
2022-09-12T05:09:57.547Z,18.2
2022-09-12T05:10:58.502Z,18.2
2022-09-12T05:12:04.506Z,18.2
2022-09-12T05:13:00.737Z,18.2
2022-09-12T05:14:02.479Z,18.2
2022-09-12T05:15:03.613Z,18.2
2022-09-12T05:16:05.520Z,18.2
2022-09-12T05:17:06.509Z,18.3
2022-09-12T05:18:07.611Z,18.4
2022-09-12T05:19:08.497Z,18.4
2022-09-12T05:20:09.511Z,18.4
2022-09-12T05:21:10.497Z,18.5
2022-09-12T05:22:11.546Z,18.6
2022-09-12T05:23:12.526Z,18.8
2022-09-12T05:24:13.499Z,18.8
2022-09-12T05:25:15.534Z,18.8
2022-09-12T05:26:16.511Z,18.7
2022-09-12T05:27:17.503Z,18.7
2022-09-12T05:28:18.560Z,18.7
2022-09-12T05:29:19.512Z,18.8
2022-09-12T05:30:20.541Z,18.8
2022-09-12T05:31:21.517Z,19.1
2022-09-12T05:32:22.511Z,19.4
2022-09-12T05:33:25.136Z,19.7
2022-09-12T05:34:24.560Z,19.9
2022-09-12T05:35:25.510Z,20
2022-09-12T05:36:26.519Z,20.2
2022-09-12T05:37:28.545Z,20.7
2022-09-12T05:38:29.518Z,21.3
2022-09-12T05:39:30.590Z,22
2022-09-12T05:40:31.541Z,22.4
2022-09-12T05:41:32.535Z,22.8
2022-09-12T05:42:33.526Z,23
2022-09-12T05:43:34.532Z,23.3
2022-09-12T05:44:35.618Z,23.4
2022-09-12T05:45:36.715Z,23.7
2022-09-12T05:46:38.932Z,23.9
2022-09-12T05:47:40.555Z,24.3
2022-09-12T05:48:41.680Z,24.4
2022-09-12T05:49:43.599Z,24.3
2022-09-12T05:50:45.565Z,24.3
2022-09-12T05:51:46.580Z,24.4
2022-09-12T05:52:47.609Z,24.5
2022-09-12T05:53:48.556Z,24.5
2022-09-12T05:54:49.650Z,24.6
2022-09-12T05:55:50.546Z,24.7
2022-09-12T05:56:51.586Z,24.5
2022-09-12T05:57:52.570Z,24.4
2022-09-12T05:58:54.678Z,24.4
2022-09-12T05:59:56.589Z,24.2
2022-09-12T06:00:57.768Z,24
2022-09-12T06:01:58.579Z,24.1
2022-09-12T06:02:59.635Z,24.1
2022-09-12T06:04:00.612Z,24.1
2022-09-12T06:05:01.616Z,24.1
2022-09-12T06:06:02.606Z,24.1
2022-09-12T06:07:03.645Z,24.2
2022-09-12T06:08:04.629Z,24.4
2022-09-12T06:09:05.574Z,24.6
2022-09-12T06:10:06.615Z,25
2022-09-12T06:11:07.608Z,25.4
2022-09-12T06:12:08.613Z,25.9
2022-09-12T06:13:09.618Z,26.3
2022-09-12T06:14:10.610Z,26.4
2022-09-12T06:15:11.686Z,26.2
2022-09-12T06:16:12.657Z,25.9
2022-09-12T06:17:13.938Z,25.5
2022-09-12T06:18:15.651Z,25.4
2022-09-12T06:19:16.612Z,25.5
2022-09-12T06:20:17.597Z,25.4
2022-09-12T06:21:18.845Z,25.1
2022-09-12T06:22:20.604Z,24.8
2022-09-12T06:23:21.701Z,24.6
2022-09-12T06:24:23.855Z,24.5
2022-09-12T06:25:25.617Z,24.5
2022-09-12T06:26:26.641Z,24.7
2022-09-12T06:27:27.599Z,25
2022-09-12T06:28:29.758Z,25.3
2022-09-12T06:29:31.651Z,25.4
2022-09-12T06:30:32.649Z,25.1
2022-09-12T06:31:33.946Z,24.9
2022-09-12T06:32:35.644Z,24.9
2022-09-12T06:33:36.684Z,25.2
2022-09-12T06:34:37.663Z,25.6
2022-09-12T06:35:38.762Z,25.9
2022-09-12T06:36:40.622Z,25.6
2022-09-12T06:37:41.616Z,25.4
2022-09-12T06:38:42.697Z,25.2
2022-09-12T06:39:43.689Z,25.1
2022-09-12T06:40:44.735Z,24.8
2022-09-12T06:41:45.619Z,24.6
2022-09-12T06:42:46.635Z,24.6
2022-09-12T06:43:48.001Z,24.8
2022-09-12T06:44:50.638Z,25.1
2022-09-12T06:45:51.745Z,25
2022-09-12T06:46:52.632Z,25
2022-09-12T06:47:53.922Z,24.9
2022-09-12T06:48:55.644Z,24.7
2022-09-12T06:49:56.964Z,24.2
2022-09-12T06:50:58.677Z,23.7
2022-09-12T06:51:59.693Z,23.4
2022-09-12T06:53:01.683Z,23.1
2022-09-12T06:54:02.675Z,22.8
2022-09-12T06:55:04.749Z,22.4
2022-09-12T06:56:05.659Z,22.3
2022-09-12T06:57:07.649Z,22.3
2022-09-12T06:58:08.913Z,22.2
2022-09-12T06:59:10.697Z,22.4
2022-09-12T07:00:11.797Z,22.7
2022-09-12T07:01:13.742Z,23.2
2022-09-12T07:02:14.958Z,23.6
2022-09-12T07:03:16.687Z,24
2022-09-12T07:04:18.809Z,24.5
2022-09-12T07:05:23.810Z,24.9
2022-09-12T07:06:25.703Z,25.3
2022-09-12T07:07:27.725Z,25.6
2022-09-12T07:08:29.878Z,25.8
2022-09-12T07:09:31.699Z,26
2022-09-12T07:10:33.132Z,26.2
2022-09-12T07:11:34.724Z,26.3
2022-09-12T07:12:35.876Z,26.4
2022-09-12T07:13:37.733Z,26
2022-09-12T07:14:38.741Z,25.3
2022-09-12T07:15:39.698Z,24.8
2022-09-12T07:16:40.789Z,24.7
2022-09-12T07:17:42.106Z,24.7
2022-09-12T07:18:43.761Z,25
2022-09-12T07:19:44.739Z,25.2
2022-09-12T07:20:45.971Z,25.5
2022-09-12T07:21:47.689Z,25.9
2022-09-12T07:22:48.778Z,26.4
2022-09-12T07:23:49.703Z,26.3
2022-09-12T07:24:50.703Z,25.9
2022-09-12T07:25:52.723Z,25.8
2022-09-12T07:26:53.781Z,26.1
2022-09-12T07:27:54.729Z,26.4
2022-09-12T07:29:08.198Z,26.7
2022-09-12T07:29:58.788Z,26.9
2022-09-12T07:31:00.788Z,27.2
2022-09-12T07:32:02.751Z,27.4
2022-09-12T07:33:04.705Z,27.8
2022-09-12T07:34:05.803Z,28.1
2022-09-12T07:35:07.982Z,28.4
2022-09-12T07:36:09.881Z,28.6
2022-09-12T07:37:11.724Z,28.6
2022-09-12T07:38:12.712Z,28.4
2022-09-12T07:39:13.748Z,28.3
2022-09-12T07:40:14.786Z,28.4
2022-09-12T07:41:16.793Z,27.9
2022-09-12T07:42:17.756Z,27.3
2022-09-12T07:43:18.744Z,26.8
2022-09-12T07:44:19.731Z,26.3
2022-09-12T07:45:20.759Z,25.8
2022-09-12T07:46:21.783Z,25.6
2022-09-12T07:47:22.735Z,25.6
2022-09-12T07:48:23.728Z,25.8
2022-09-12T07:49:24.732Z,26.2
2022-09-12T07:50:25.763Z,26.2
2022-09-12T07:51:26.797Z,26.3
2022-09-12T07:52:27.748Z,26.4
2022-09-12T07:53:28.766Z,26.4
2022-09-12T07:54:29.745Z,26.3
2022-09-12T07:55:30.783Z,26.2
2022-09-12T07:56:34.665Z,25.9
2022-09-12T07:57:32.826Z,26.1
2022-09-12T07:58:33.766Z,26.6
2022-09-12T07:59:51.820Z,27.1
2022-09-12T08:00:35.825Z,27.6
2022-09-12T08:01:36.891Z,28.1
2022-09-12T08:02:37.886Z,28.5
2022-09-12T08:03:38.809Z,28.8
2022-09-12T08:04:39.787Z,28.7
2022-09-12T08:05:40.797Z,28.4
2022-09-12T08:06:41.823Z,28.2
2022-09-12T08:07:42.768Z,28.2
2022-09-12T08:08:43.776Z,28.3
2022-09-12T08:09:44.826Z,28.5
2022-09-12T08:10:45.779Z,28.6
2022-09-12T08:11:46.816Z,28.4
2022-09-12T08:12:47.788Z,28.1
2022-09-12T08:13:53.048Z,27.7
2022-09-12T08:14:49.834Z,27.5
2022-09-12T08:15:50.836Z,27.6
2022-09-12T08:16:51.796Z,27.6
2022-09-12T08:17:52.817Z,27.7
2022-09-12T08:18:54.927Z,27.6
2022-09-12T08:19:56.900Z,27.5
2022-09-12T08:20:57.821Z,27.7
2022-09-12T08:21:58.813Z,27.2
2022-09-12T08:22:59.806Z,26.7
2022-09-12T08:24:00.811Z,26.5
2022-09-12T08:25:01.923Z,26.2
2022-09-12T08:26:06.058Z,26.2
2022-09-12T08:27:05.817Z,26.4
2022-09-12T08:28:06.800Z,26.8
2022-09-12T08:29:07.851Z,27.3
2022-09-12T08:30:08.852Z,27.8
2022-09-12T08:31:09.885Z,28
2022-09-12T08:32:10.839Z,28.3
2022-09-12T08:33:11.824Z,28.2
2022-09-12T08:34:12.815Z,28
2022-09-12T08:35:13.811Z,27.6
2022-09-12T08:36:14.882Z,27.2
2022-09-12T08:37:15.883Z,26.7
2022-09-12T08:38:16.817Z,26.4
2022-09-12T08:39:17.827Z,26.4
2022-09-12T08:40:19.061Z,26.2
2022-09-12T08:41:19.851Z,26
2022-09-12T08:42:20.887Z,25.7
2022-09-12T08:43:21.878Z,25.7
2022-09-12T08:44:22.845Z,25.6
2022-09-12T08:45:23.862Z,25.5
2022-09-12T08:46:25.096Z,25.5
2022-09-12T08:47:26.883Z,25.6
2022-09-12T08:48:27.839Z,26
2022-09-12T08:49:28.855Z,26.6
2022-09-12T08:50:29.843Z,27.1
2022-09-12T08:51:30.872Z,27.7
2022-09-12T08:52:32.081Z,28.1
2022-09-12T08:53:33.849Z,28.4
2022-09-12T08:54:34.865Z,28.7
2022-09-12T08:55:35.844Z,28.5
2022-09-12T08:56:36.883Z,28.2
2022-09-12T08:57:37.874Z,27.9
2022-09-12T08:58:38.898Z,27.5
2022-09-12T08:59:39.874Z,27.1
2022-09-12T09:00:40.871Z,26.7
2022-09-12T09:01:41.955Z,26.1
2022-09-12T09:02:42.960Z,25.9
2022-09-12T09:03:43.865Z,26.1
2022-09-12T09:04:44.869Z,26.7
2022-09-12T09:05:45.906Z,27.3
2022-09-12T09:06:46.905Z,27.8
2022-09-12T09:07:47.970Z,28.1
2022-09-12T09:08:48.903Z,28.4
2022-09-12T09:09:49.876Z,28.3
2022-09-12T09:10:50.887Z,28
2022-09-12T09:11:51.877Z,27.8
2022-09-12T09:12:52.936Z,27.7
2022-09-12T09:13:53.883Z,27.8
2022-09-12T09:14:54.885Z,27.8
2022-09-12T09:15:55.974Z,27.8
2022-09-12T09:16:56.886Z,27.7
2022-09-12T09:17:57.926Z,27.3
2022-09-12T09:18:58.913Z,26.8
2022-09-12T09:19:59.898Z,26.5
2022-09-12T09:21:00.895Z,26.4
2022-09-12T09:22:02.305Z,26.3
2022-09-12T09:23:03.924Z,26.2
2022-09-12T09:24:04.944Z,26.1
2022-09-12T09:25:05.947Z,25.8
2022-09-12T09:26:06.945Z,25.6
2022-09-12T09:27:18.305Z,25.6
2022-09-12T09:28:08.950Z,25.6
2022-09-12T09:29:09.908Z,25.6
2022-09-12T09:30:10.955Z,25.6
2022-09-12T09:31:11.962Z,25.7
2022-09-12T09:32:12.987Z,25.9
2022-09-12T09:33:13.945Z,25.8
2022-09-12T09:34:14.908Z,25.6
2022-09-12T09:35:15.951Z,25.4
2022-09-12T09:36:16.949Z,25.3
2022-09-12T09:37:17.956Z,25.4
2022-09-12T09:38:18.947Z,25.6
2022-09-12T09:39:19.964Z,25.6
2022-09-12T09:40:21.026Z,25.6
2022-09-12T09:41:21.979Z,25.5
2022-09-12T09:42:23.007Z,25.1
2022-09-12T09:43:23.945Z,24.9
2022-09-12T09:44:24.933Z,24.6
2022-09-12T09:45:25.938Z,24.7
2022-09-12T09:46:27.044Z,25.2
2022-09-12T09:47:28.008Z,25.8
2022-09-12T09:48:28.941Z,26.3
2022-09-12T09:49:29.946Z,26.8
2022-09-12T09:50:30.950Z,27.1
2022-09-12T09:51:32.011Z,27.2
2022-09-12T09:52:32.975Z,27.1
2022-09-12T09:53:34.049Z,26.9
2022-09-12T09:54:34.952Z,26.8
2022-09-12T09:55:35.998Z,26.6
2022-09-12T09:56:36.953Z,26.5
2022-09-12T09:57:37.952Z,26.5
2022-09-12T09:58:39.024Z,26.5
2022-09-12T09:59:40.031Z,26.7
2022-09-12T10:00:40.960Z,26.6
2022-09-12T10:01:42.029Z,26.4
2022-09-12T10:02:42.994Z,26.2
2022-09-12T10:03:45.973Z,26
2022-09-12T10:04:47.007Z,25.8
2022-09-12T10:05:47.975Z,25.5
2022-09-12T10:06:48.984Z,25.3
2022-09-12T10:07:50.003Z,25
2022-09-12T10:08:51.026Z,24.8
2022-09-12T10:09:52.008Z,24.6
2022-09-12T10:10:52.983Z,24.7
2022-09-12T10:11:54.048Z,24.7
2022-09-12T10:12:54.980Z,24.5
2022-09-12T10:13:56.013Z,24.3
2022-09-12T10:14:57.054Z,24
2022-09-12T10:15:58.066Z,23.9
2022-09-12T10:16:59.107Z,23.9
2022-09-12T10:18:01.029Z,24
2022-09-12T10:19:02.081Z,24
2022-09-12T10:20:21.355Z,24
2022-09-12T10:21:04.997Z,24
2022-09-12T10:22:06.043Z,24
2022-09-12T10:23:07.046Z,24.1
2022-09-12T10:24:08.034Z,24.2
2022-09-12T10:25:09.046Z,24.1
2022-09-12T10:26:10.005Z,23.9
2022-09-12T10:27:11.041Z,23.7
2022-09-12T10:28:12.016Z,23.5
2022-09-12T10:29:13.026Z,23.4
2022-09-12T10:30:14.141Z,23.5
2022-09-12T10:31:16.134Z,23.7
2022-09-12T10:32:17.057Z,24.1
2022-09-12T10:33:18.054Z,24.6
2022-09-12T10:34:19.053Z,25.1
2022-09-12T10:35:20.122Z,25.4
2022-09-12T10:36:21.053Z,25.7
2022-09-12T10:37:22.027Z,25.8
2022-09-12T10:38:23.031Z,25.8
2022-09-12T10:39:24.080Z,25.8
2022-09-12T10:40:25.142Z,25.8
2022-09-12T10:41:26.020Z,26
2022-09-12T10:42:27.105Z,26.3
2022-09-12T10:43:28.033Z,26.5
2022-09-12T10:44:29.049Z,26.5
2022-09-12T10:45:30.080Z,26.5
2022-09-12T10:46:31.089Z,26.6
2022-09-12T10:47:32.035Z,26.5
2022-09-12T10:48:33.047Z,26.5
2022-09-12T10:49:34.048Z,26.7
2022-09-12T10:50:35.080Z,27
2022-09-12T10:51:36.105Z,27.2
2022-09-12T10:52:37.045Z,27.4
2022-09-12T10:53:38.047Z,27.6
2022-09-12T10:54:39.079Z,27.7
2022-09-12T10:55:40.049Z,27.6
2022-09-12T10:56:41.138Z,27.5
2022-09-12T10:57:42.053Z,27.1
2022-09-12T10:58:43.076Z,26.7
2022-09-12T10:59:44.063Z,26.5
2022-09-12T11:00:45.068Z,26.4
2022-09-12T11:01:46.150Z,26.4
2022-09-12T11:02:47.091Z,26.4
2022-09-12T11:03:48.329Z,26.2
2022-09-12T11:04:49.069Z,26
2022-09-12T11:05:50.084Z,26
2022-09-12T11:06:51.139Z,26
2022-09-12T11:07:52.121Z,26
2022-09-12T11:08:53.115Z,26.3
2022-09-12T11:09:54.106Z,26.6
2022-09-12T11:10:55.084Z,26.6
2022-09-12T11:11:56.178Z,26.6
2022-09-12T11:12:57.106Z,26.7
2022-09-12T11:13:58.079Z,26.8
2022-09-12T11:14:59.118Z,26.9
2022-09-12T11:16:00.205Z,26.9
2022-09-12T11:17:01.160Z,26.8
2022-09-12T11:18:02.182Z,26.8
2022-09-12T11:19:03.103Z,26.6
2022-09-12T11:20:04.248Z,26.5
2022-09-12T11:21:06.100Z,26.4
2022-09-12T11:22:07.182Z,26.5
2022-09-12T11:23:08.136Z,26.7
2022-09-12T11:24:09.103Z,26.8
2022-09-12T11:25:10.157Z,26.9
2022-09-12T11:26:11.107Z,26.9
2022-09-12T11:27:12.579Z,26.7
2022-09-12T11:28:14.109Z,26.5
2022-09-12T11:29:15.117Z,26.4
2022-09-12T11:30:16.306Z,26.4
2022-09-12T11:31:18.165Z,26.5
2022-09-12T11:32:19.150Z,26.6
2022-09-12T11:33:20.219Z,26.8
2022-09-12T11:34:21.115Z,26.8
2022-09-12T11:35:22.158Z,26.7
2022-09-12T11:36:23.152Z,26.7
2022-09-12T11:37:24.125Z,26.7
2022-09-12T11:38:25.146Z,26.6
2022-09-12T11:39:26.136Z,26.4
2022-09-12T11:40:27.365Z,26.3
2022-09-12T11:41:29.147Z,26.2
2022-09-12T11:42:30.159Z,26
2022-09-12T11:43:31.425Z,25.9
2022-09-12T11:44:33.175Z,25.8
2022-09-12T11:45:34.206Z,25.8
2022-09-12T11:46:35.177Z,25.8
2022-09-12T11:47:36.278Z,25.7
2022-09-12T11:48:38.552Z,25.8
2022-09-12T11:49:40.217Z,26.2
2022-09-12T11:50:41.160Z,26.8
2022-09-12T11:51:43.090Z,27.4
2022-09-12T11:52:44.189Z,28
2022-09-12T11:53:45.286Z,28.4
2022-09-12T11:54:50.262Z,28.8
2022-09-12T11:55:48.343Z,29
2022-09-12T11:56:50.197Z,29.1
2022-09-12T11:57:51.195Z,29.3
2022-09-12T11:58:52.851Z,29.6
2022-09-12T11:59:54.190Z,29.9
2022-09-12T12:00:55.171Z,30.1
2022-09-12T12:01:56.187Z,30.2
2022-09-12T12:02:57.199Z,30
2022-09-12T12:03:58.259Z,29.7
2022-09-12T12:04:59.252Z,29.6
2022-09-12T12:06:00.243Z,29.7
2022-09-12T12:07:01.249Z,29.6
2022-09-12T12:08:02.327Z,29.2
2022-09-12T12:09:04.183Z,28.9
2022-09-12T12:10:05.279Z,28.4
2022-09-12T12:11:06.221Z,28
2022-09-12T12:12:07.322Z,27.6
2022-09-12T12:13:13.425Z,27.4
2022-09-12T12:14:10.191Z,27.3
2022-09-12T12:15:11.212Z,27.3
2022-09-12T12:16:12.262Z,27.4
2022-09-12T12:17:13.378Z,27.4
2022-09-12T12:18:15.244Z,27.4
2022-09-12T12:19:16.199Z,27.4
2022-09-12T12:20:17.358Z,27.3
2022-09-12T12:21:19.205Z,27.3
2022-09-12T12:22:20.220Z,27.3
2022-09-12T12:23:21.261Z,27.3
2022-09-12T12:24:22.203Z,27.2
2022-09-12T12:25:26.322Z,27.1
2022-09-12T12:26:24.265Z,27.2
2022-09-12T12:27:25.259Z,27.3
2022-09-12T12:28:26.274Z,27.5
2022-09-12T12:29:28.069Z,27.7
2022-09-12T12:30:29.218Z,27.9
2022-09-12T12:31:30.265Z,28
2022-09-12T12:32:31.226Z,27.8
2022-09-12T12:33:32.320Z,27.7
2022-09-12T12:34:33.510Z,27.5
2022-09-12T12:35:35.229Z,27.3
2022-09-12T12:36:36.280Z,27
2022-09-12T12:37:37.232Z,26.8
2022-09-12T12:38:38.295Z,26.6
2022-09-12T12:39:39.543Z,26.4
2022-09-12T12:40:41.237Z,26.3
2022-09-12T12:41:42.256Z,26.3
2022-09-12T12:42:43.284Z,26.2
2022-09-12T12:43:44.355Z,26
2022-09-12T12:44:45.297Z,25.9
2022-09-12T12:45:46.244Z,25.8
2022-09-12T12:46:47.253Z,25.8
2022-09-12T12:47:48.244Z,25.7
2022-09-12T12:48:49.257Z,25.7
2022-09-12T12:49:50.295Z,25.6
2022-09-12T12:50:51.249Z,25.5
2022-09-12T12:51:52.320Z,25.3
2022-09-12T12:52:53.494Z,25.3
2022-09-12T12:53:55.269Z,25.2
2022-09-12T12:54:56.333Z,25.2
2022-09-12T12:55:58.126Z,25.3
2022-09-12T12:56:59.313Z,25.2
2022-09-12T12:58:00.310Z,25.2
2022-09-12T12:59:01.265Z,25.1
2022-09-12T13:00:02.471Z,25.1
2022-09-12T13:01:04.653Z,25.1
2022-09-12T13:02:06.413Z,25.1
2022-09-12T13:03:08.300Z,25.1
2022-09-12T13:04:09.281Z,25.1
2022-09-12T13:05:10.277Z,25
2022-09-12T13:06:11.350Z,25.1
2022-09-12T13:07:12.306Z,25.1
2022-09-12T13:08:13.281Z,25.1
2022-09-12T13:09:14.284Z,25.2
2022-09-12T13:10:15.736Z,25.2
2022-09-12T13:11:17.291Z,25.2
2022-09-12T13:12:18.341Z,25.2
2022-09-12T13:13:20.055Z,25.2
2022-09-12T13:14:21.292Z,25.3
2022-09-12T13:15:22.294Z,25.5
2022-09-12T13:16:23.286Z,25.6
2022-09-12T13:17:24.331Z,25.7
2022-09-12T13:18:25.291Z,25.7
2022-09-12T13:19:27.399Z,25.7
2022-09-12T13:20:29.814Z,25.7
2022-09-12T13:21:30.307Z,25.5
2022-09-12T13:22:31.336Z,25.3
2022-09-12T13:28:20.439Z,25.4
2022-09-12T13:29:21.371Z,25.5
2022-09-12T13:30:22.483Z,25.6
2022-09-12T13:31:24.454Z,25.5
2022-09-12T13:32:25.355Z,25.5
2022-09-12T13:33:26.429Z,25.4
2022-09-12T13:34:28.346Z,25.4
2022-09-12T13:35:29.343Z,25.4
2022-09-12T13:36:30.547Z,25.6
2022-09-12T13:37:32.371Z,25.6
2022-09-12T13:38:33.359Z,25.6
2022-09-12T13:39:34.348Z,25.5
2022-09-12T13:40:35.362Z,25.4
2022-09-12T13:41:36.371Z,25.2
2022-09-12T13:42:37.343Z,25.1
2022-09-12T13:43:38.379Z,25
2022-09-12T13:44:39.370Z,25
2022-09-12T13:45:40.345Z,24.9
2022-09-12T13:46:41.359Z,24.7
2022-09-12T13:47:42.350Z,24.7